Time;durP1;ratioP1;P1;durP2;ratioP2;P2;SDS_P1;SDS_P2;PMS_P1;PMS_P2;Temp;Humidity;BMP_temperature;BMP_pressure;BME280_temperature;BME280_humidity;BME280_pressure;Samples;Min_cycle;Max_cycle;Signal;HPM_P1;HPM_P2
2023/01/11 00:00:01;;;;;;;6.53;5.90;;;8.40;99.90;;;;;;4995851;28;92964;-32
2023/01/11 00:02:26;;;;;;;6.90;6.28;;;8.40;99.90;;;;;;5008336;27;94902;-35
2023/01/11 00:04:52;;;;;;;6.72;6.05;;;8.50;99.90;;;;;;4996588;27;95450;-31
2023/01/11 00:07:18;;;;;;;6.85;6.18;;;8.50;99.90;;;;;;4996902;28;93615;-32
2023/01/11 00:09:46;;;;;;;7.13;6.43;;;8.50;99.90;;;;;;4995892;28;92941;-33
2023/01/11 00:12:13;;;;;;;;;;;8.50;99.90;;;;;;5006430;28;94703;-33
2023/01/11 00:14:38;;;;;;;6.65;6.05;;;8.50;99.90;;;;;;5001715;27;94026;-33
2023/01/11 00:17:04;;;;;;;6.68;6.07;;;8.60;99.90;;;;;;5004650;28;94154;-32
2023/01/11 00:19:29;;;;;;;5.95;5.07;;;8.60;99.90;;;;;;4995945;28;92571;-32
2023/01/11 00:21:55;;;;;;;5.60;5.20;;;8.60;99.90;;;;;;4979691;28;96682;-32
2023/01/11 00:24:21;;;;;;;6.95;6.35;;;8.70;99.90;;;;;;4995463;27;94435;-31
2023/01/11 00:26:46;;;;;;;6.60;6.00;;;8.70;99.90;;;;;;4996189;28;95186;-35
2023/01/11 00:29:12;;;;;;;6.80;6.20;;;8.60;99.90;;;;;;4996534;28;92164;-34
2023/01/11 00:31:37;;;;;;;7.53;6.72;;;8.70;99.90;;;;;;4995974;28;95006;-33
2023/01/11 00:34:03;;;;;;;5.80;4.97;;;8.70;99.90;;;;;;4995451;28;94923;-32
2023/01/11 00:36:29;;;;;;;6.40;5.82;;;8.70;99.90;;;;;;4995907;28;93394;-33
2023/01/11 00:38:54;;;;;;;6.15;5.65;;;8.70;99.90;;;;;;4996013;28;94505;-34
2023/01/11 00:49:48;;;;;;;8.30;5.28;;;8.80;99.90;;;;;;5000667;28;92442;-32
2023/01/11 00:52:14;;;;;;;5.85;5.35;;;8.80;99.90;;;;;;4976920;28;95402;-33
2023/01/11 00:54:40;;;;;;;7.40;6.70;;;8.90;99.90;;;;;;4995992;28;95672;-32
2023/01/11 00:57:06;;;;;;;5.70;5.20;;;8.90;99.90;;;;;;4995402;27;94521;-33
2023/01/11 00:59:38;;;;;;;7.00;5.90;;;8.90;99.90;;;;;;4998700;27;94866;-35
2023/01/11 01:02:03;;;;;;;6.68;5.55;;;8.90;99.90;;;;;;5004207;28;93295;-32
2023/01/11 01:04:29;;;;;;;6.70;6.10;;;9.00;99.90;;;;;;4995832;28;94647;-31
2023/01/11 01:06:55;;;;;;;5.78;5.28;;;9.00;99.90;;;;;;4995211;28;92228;-35
2023/01/11 01:09:20;;;;;;;5.60;5.10;;;9.00;99.90;;;;;;4995289;28;93028;-34
2023/01/11 01:11:46;;;;;;;8.63;5.28;;;9.00;99.90;;;;;;5008075;27;94734;-31
2023/01/11 01:14:25;;;;;;;9.02;5.32;;;9.00;99.90;;;;;;4997522;28;95032;-33
2023/01/11 01:16:52;;;;;;;6.65;6.05;;;9.10;99.90;;;;;;4997782;28;94990;-33
2023/01/11 01:19:19;;;;;;;5.50;4.95;;;9.20;99.90;;;;;;4998925;27;94219;-34
2023/01/11 01:21:45;;;;;;;4.23;3.93;;;9.10;99.90;;;;;;5000355;27;94756;-32
2023/01/11 01:24:11;;;;;;;5.78;5.28;;;9.20;99.90;;;;;;5021037;27;94611;-32
2023/01/11 01:26:36;;;;;;;6.10;5.57;;;9.20;99.90;;;;;;4999474;28;92097;-31
2023/01/11 01:29:02;;;;;;;6.50;5.90;;;9.30;99.90;;;;;;5024688;27;93225;-34
2023/01/11 01:31:28;;;;;;;5.97;5.40;;;9.30;99.90;;;;;;5008227;27;94599;-35
2023/01/11 01:33:53;;;;;;;5.60;4.93;;;9.30;99.90;;;;;;5003869;28;94499;-33
2023/01/11 01:36:19;;;;;;;7.93;5.20;;;9.30;99.90;;;;;;4998697;28;94871;-34
2023/01/11 01:38:45;;;;;;;6.13;5.28;;;9.40;99.90;;;;;;5011594;28;93646;-31
2023/01/11 01:41:14;;;;;;;5.30;4.80;;;9.40;99.90;;;;;;4997313;27;95283;-31
2023/01/11 01:44:00;;;;;;;5.43;4.93;;;9.40;99.90;;;;;;4997527;28;95425;-32
2023/01/11 01:46:28;;;;;;;5.63;5.13;;;9.30;99.90;;;;;;4998708;28;93321;-33
2023/01/11 01:49:02;;;;;;;7.80;5.53;;;9.30;99.90;;;;;;4998571;28;94639;-32
2023/01/11 01:51:43;;;;;;;5.97;5.38;;;9.40;99.90;;;;;;5007508;28;94805;-33
2023/01/11 01:54:15;;;;;;;7.30;4.75;;;9.40;99.90;;;;;;5002734;27;94609;-31
2023/01/11 01:56:50;;;;;;;5.78;5.35;;;9.40;99.90;;;;;;4998540;28;92242;-32
2023/01/11 01:59:19;;;;;;;10.32;6.65;;;9.50;99.90;;;;;;4997837;28;93771;-31
2023/01/11 02:01:48;;;;;;;6.10;5.60;;;9.40;99.90;;;;;;5007119;28;93972;-32
2023/01/11 02:04:29;;;;;;;5.43;5.00;;;9.40;99.90;;;;;;5000857;28;94698;-32
2023/01/11 02:07:08;;;;;;;6.20;5.60;;;9.50;99.90;;;;;;4997212;28;94751;-31
2023/01/11 02:09:45;;;;;;;5.35;4.38;;;9.50;99.90;;;;;;4997178;28;93955;-32
2023/01/11 02:12:11;;;;;;;5.95;5.30;;;9.50;99.90;;;;;;4997989;28;94637;-31
2023/01/11 02:14:38;;;;;;;6.80;5.35;;;9.50;99.90;;;;;;4998048;28;94857;-32
2023/01/11 02:17:04;;;;;;;6.07;5.35;;;9.50;99.90;;;;;;4998011;28;94172;-32
2023/01/11 02:19:51;;;;;;;7.90;5.22;;;9.50;99.90;;;;;;4997160;28;93688;-34
2023/01/11 02:22:52;;;;;;;5.72;5.20;;;9.50;99.90;;;;;;4997464;28;93109;-33
2023/01/11 02:25:35;;;;;;;6.95;6.30;;;9.50;99.90;;;;;;5007438;27;95390;-33
2023/01/11 02:28:31;;;;;;;5.88;5.22;;;9.50;99.90;;;;;;4998396;28;92978;-31
2023/01/11 02:30:56;;;;;;;5.40;4.88;;;9.60;99.90;;;;;;4975940;28;93123;-33
2023/01/11 02:33:27;;;;;;;5.15;4.32;;;9.70;99.90;;;;;;5016900;27;95593;-32
2023/01/11 02:36:15;;;;;;;5.40;4.60;;;9.60;99.90;;;;;;4982872;28;95351;-32
2023/01/11 02:38:49;;;;;;;5.80;4.85;;;9.70;99.90;;;;;;4997813;28;94062;-32
2023/01/11 02:45:01;;;;;;;8.32;5.68;;;9.70;99.90;;;;;;4997106;28;95792;-32
2023/01/11 02:47:53;;;;;;;4.70;4.00;;;9.80;99.90;;;;;;4997327;28;94875;-32
2023/01/11 02:50:48;;;;;;;5.18;4.68;;;9.80;99.90;;;;;;5011062;28;92175;-35
2023/01/11 02:53:31;;;;;;;5.03;4.63;;;9.80;99.90;;;;;;4997899;28;92460;-33
2023/01/11 02:56:03;;;;;;;4.60;4.25;;;9.90;99.90;;;;;;4997050;28;93890;-31
2023/01/11 02:58:33;;;;;;;4.80;4.35;;;9.90;99.90;;;;;;4997265;28;94237;-32
2023/01/11 03:00:59;;;;;;;4.78;4.20;;;9.90;99.90;;;;;;4996331;28;94496;-33
2023/01/11 03:03:28;;;;;;;3.70;3.40;;;10.00;99.90;;;;;;4997573;28;93288;-34
2023/01/11 03:06:06;;;;;;;4.75;3.90;;;9.90;99.90;;;;;;4991793;28;94770;-32
2023/01/11 03:08:36;;;;;;;4.72;4.22;;;9.90;99.90;;;;;;4997750;28;94346;-33
2023/01/11 03:14:46;;;;;;;6.13;4.20;;;10.00;99.90;;;;;;4974169;28;93191;-31
2023/01/11 03:17:40;;;;;;;3.67;3.38;;;10.10;99.90;;;;;;4977975;28;95268;-33
2023/01/11 03:20:19;;;;;;;6.57;4.40;;;10.00;99.90;;;;;;4978724;28;93493;-31
2023/01/11 03:23:14;;;;;;;4.57;4.18;;;10.00;99.90;;;;;;4997325;27;93885;-32
2023/01/11 03:25:46;;;;;;;4.80;4.22;;;10.00;99.90;;;;;;4997629;28;94715;-32
2023/01/11 03:28:24;;;;;;;4.20;3.72;;;10.10;99.90;;;;;;4996302;28;95461;-34
2023/01/11 03:31:01;;;;;;;3.50;3.20;;;10.10;99.90;;;;;;4998372;27;95920;-33
2023/01/11 03:33:40;;;;;;;4.40;3.47;;;10.00;99.90;;;;;;4997215;28;92124;-34
2023/01/11 03:36:32;;;;;;;3.45;2.90;;;10.00;99.90;;;;;;4996614;28;94766;-32
2023/01/11 03:39:22;;;;;;;3.15;2.90;;;10.00;99.90;;;;;;4992204;28;94738;-33
2023/01/11 03:41:51;;;;;;;3.88;3.47;;;10.00;99.90;;;;;;4999271;27;94593;-33
2023/01/11 03:44:19;;;;;;;2.88;2.67;;;10.10;99.90;;;;;;4996844;28;93429;-32
2023/01/11 03:46:53;;;;;;;3.00;2.80;;;10.10;99.90;;;;;;4996990;28;91361;-33
2023/01/11 03:49:36;;;;;;;5.63;2.78;;;10.10;99.90;;;;;;4996078;28;96870;-34
2023/01/11 03:52:05;;;;;;;3.80;3.00;;;10.20;99.90;;;;;;4996602;28;94507;-32
2023/01/11 03:54:32;;;;;;;3.05;2.75;;;10.20;99.90;;;;;;4996925;28;95803;-34
2023/01/11 03:57:11;;;;;;;4.50;2.67;;;10.20;99.90;;;;;;4996885;28;92876;-32
2023/01/11 03:59:38;;;;;;;2.47;2.28;;;10.20;99.90;;;;;;5008436;28;94423;-32
2023/01/11 04:02:04;;;;;;;2.47;2.28;;;10.20;99.90;;;;;;4996117;28;94206;-34
2023/01/11 04:04:30;;;;;;;2.95;2.75;;;10.30;99.90;;;;;;4996604;28;92200;-32
2023/01/11 04:06:55;;;;;;;2.75;2.55;;;10.30;99.90;;;;;;4996456;27;94524;-31
2023/01/11 04:09:21;;;;;;;3.90;2.78;;;10.30;99.90;;;;;;4995901;28;94716;-35
2023/01/11 04:11:47;;;;;;;2.70;2.50;;;10.30;99.90;;;;;;4996695;28;94316;-34
2023/01/11 04:14:12;;;;;;;3.67;2.42;;;10.20;99.90;;;;;;5013405;28;94315;-34
2023/01/11 04:16:38;;;;;;;2.53;2.33;;;10.20;99.90;;;;;;5004835;28;94263;-33
2023/01/11 04:19:04;;;;;;;5.55;2.13;;;10.30;99.90;;;;;;4996691;27;96078;-32
2023/01/11 04:21:29;;;;;;;1.88;1.73;;;10.20;99.90;;;;;;4996336;28;95576;-35
2023/01/11 04:23:55;;;;;;;2.40;2.20;;;10.30;99.90;;;;;;4996224;28;94780;-33
2023/01/11 04:26:20;;;;;;;2.45;2.28;;;10.30;99.90;;;;;;4995623;28;94238;-33
2023/01/11 04:28:46;;;;;;;6.53;1.90;;;10.40;99.90;;;;;;4995900;28;94599;-31
2023/01/11 04:31:12;;;;;;;2.10;1.90;;;10.40;99.90;;;;;;4995724;28;94516;-32
2023/01/11 04:33:37;;;;;;;2.55;1.85;;;10.30;99.90;;;;;;4996020;28;94799;-32
2023/01/11 04:36:07;;;;;;;2.22;2.03;;;10.40;99.90;;;;;;4995992;28;91952;-33
2023/01/11 04:38:33;;;;;;;3.03;2.05;;;10.40;99.90;;;;;;4995945;28;96454;-32
2023/01/11 04:43:43;;;;;;;1.77;1.67;;;10.40;99.90;;;;;;4995265;28;93495;-31
2023/01/11 04:46:09;;;;;;;2.33;1.48;;;10.40;99.90;;;;;;4995860;28;94475;-31
2023/01/11 04:48:38;;;;;;;1.05;1.02;;;10.50;99.90;;;;;;4996435;28;94414;-33
2023/01/11 04:51:07;;;;;;;1.95;1.85;;;10.40;99.90;;;;;;4981359;28;94832;-32
2023/01/11 04:53:33;;;;;;;1.60;1.50;;;10.40;99.90;;;;;;4999661;28;92206;-32
2023/01/11 04:56:03;;;;;;;1.92;1.80;;;10.40;99.90;;;;;;4998556;28;92513;-34
2023/01/11 04:58:29;;;;;;;1.70;1.40;;;10.40;99.90;;;;;;5007149;28;95035;-32
2023/01/11 05:00:55;;;;;;;2.20;2.00;;;10.40;99.90;;;;;;5003226;27;94421;-34
2023/01/11 05:03:21;;;;;;;2.22;2.03;;;10.50;99.90;;;;;;5015709;27;94997;-32
2023/01/11 05:06:00;;;;;;;3.70;2.50;;;10.50;99.90;;;;;;5008611;27;93211;-34
2023/01/11 05:08:28;;;;;;;1.98;1.88;;;10.50;99.90;;;;;;5007791;28;96296;-33
2023/01/11 05:10:59;;;;;;;2.67;2.47;;;10.50;99.90;;;;;;4999491;28;95132;-34
2023/01/11 05:13:41;;;;;;;6.40;3.17;;;10.50;99.90;;;;;;4998851;28;93345;-32
2023/01/11 05:16:10;;;;;;;3.50;2.20;;;10.50;99.90;;;;;;4998676;28;94125;-32
2023/01/11 05:18:39;;;;;;;3.53;3.20;;;10.50;99.90;;;;;;4997742;28;94183;-34
2023/01/11 05:21:05;;;;;;;3.22;2.75;;;10.60;99.90;;;;;;4998787;28;94471;-33
2023/01/11 05:23:31;;;;;;;5.38;3.95;;;10.50;99.90;;;;;;4999080;28;93018;-34
2023/01/11 05:25:57;;;;;;;6.70;3.90;;;10.60;99.90;;;;;;4998861;28;93079;-31
2023/01/11 05:28:23;;;;;;;7.72;5.05;;;10.60;99.90;;;;;;4998864;27;93645;-34
2023/01/11 05:30:52;;;;;;;4.90;4.35;;;10.60;99.90;;;;;;4998852;28;94490;-31
2023/01/11 05:33:18;;;;;;;11.70;4.30;;;10.60;99.90;;;;;;4998754;28;94473;-33
2023/01/11 05:35:45;;;;;;;9.88;5.07;;;10.60;99.90;;;;;;4998636;28;94669;-32
2023/01/11 05:38:10;;;;;;;6.55;4.75;;;10.60;99.90;;;;;;5011056;28;94631;-33
2023/01/11 05:40:36;;;;;;;13.75;5.53;;;10.70;99.90;;;;;;4997649;28;94875;-34
2023/01/11 05:43:01;;;;;;;8.43;4.13;;;10.70;99.90;;;;;;5006753;28;93407;-32
2023/01/11 05:45:34;;;;;;;9.40;5.32;;;10.60;99.90;;;;;;5017828;27;92498;-32
2023/01/11 05:48:00;;;;;;;11.70;5.32;;;10.60;99.90;;;;;;5018246;28;93816;-33
2023/01/11 05:50:26;;;;;;;11.88;4.68;;;10.60;99.90;;;;;;5015869;28;93284;-32
2023/01/11 05:52:52;;;;;;;12.40;5.20;;;10.70;99.90;;;;;;4998098;28;94845;-32
2023/01/11 05:55:18;;;;;;;11.07;5.35;;;10.70;99.90;;;;;;4998766;28;94000;-32
2023/01/11 05:57:44;;;;;;;16.27;5.25;;;10.60;99.90;;;;;;4997268;28;95408;-33
2023/01/11 06:00:11;;;;;;;11.63;4.68;;;10.60;99.90;;;;;;4996607;28;95692;-34
2023/01/11 06:02:36;;;;;;;8.30;4.30;;;10.60;99.90;;;;;;4998108;28;94094;-34
2023/01/11 06:05:03;;;;;;;14.85;5.50;;;10.50;99.90;;;;;;5007116;28;93366;-33
2023/01/11 06:07:28;;;;;;;12.45;5.18;;;10.40;99.90;;;;;;5001676;28;96446;-35
2023/01/11 06:09:54;;;;;;;17.85;5.35;;;10.40;99.90;;;;;;5007640;28;94661;-32
2023/01/11 06:12:20;;;;;;;15.23;5.47;;;10.50;99.90;;;;;;5001264;28;92506;-33
2023/01/11 06:14:45;;;;;;;13.82;5.15;;;10.40;99.90;;;;;;4998720;28;93466;-33
2023/01/11 06:17:11;;;;;;;16.75;6.68;;;10.40;99.90;;;;;;4997615;28;94823;-34
2023/01/11 06:19:36;;;;;;;12.93;4.45;;;10.40;99.90;;;;;;4997825;28;93557;-32
2023/01/11 06:22:02;;;;;;;14.13;5.13;;;10.40;99.90;;;;;;4979986;28;93611;-34
2023/01/11 06:24:28;;;;;;;15.93;5.35;;;10.40;99.90;;;;;;4997928;28;94531;-32
2023/01/11 06:26:53;;;;;;;18.83;5.35;;;10.40;99.90;;;;;;5028229;27;94499;-33
2023/01/11 06:29:19;;;;;;;14.70;5.63;;;10.40;99.90;;;;;;5018843;27;95533;-32
2023/01/11 06:31:45;;;;;;;12.02;4.70;;;10.40;99.90;;;;;;4997948;28;95032;-33
2023/01/11 06:34:11;;;;;;;21.77;6.03;;;10.40;99.90;;;;;;4997478;28;93525;-33
2023/01/11 06:36:37;;;;;;;18.02;6.85;;;10.40;99.90;;;;;;4997024;28;95012;-32
2023/01/11 06:39:04;;;;;;;15.68;5.03;;;10.40;99.90;;;;;;4998515;28;93212;-32
2023/01/11 06:41:29;;;;;;;20.50;5.35;;;10.40;99.90;;;;;;4996875;28;93804;-33
2023/01/11 06:43:55;;;;;;;13.18;4.78;;;10.40;99.90;;;;;;4997564;27;93226;-32
2023/01/11 06:46:21;;;;;;;20.95;5.82;;;10.30;99.90;;;;;;4997399;28;95432;-33
2023/01/11 06:48:46;;;;;;;11.75;5.10;;;10.30;99.90;;;;;;5009862;28;95122;-35
2023/01/11 06:51:14;;;;;;;14.52;5.35;;;10.20;99.90;;;;;;4997849;28;93037;-32
2023/01/11 06:53:40;;;;;;;18.00;5.15;;;10.20;99.90;;;;;;4996529;28;93896;-33
2023/01/11 06:56:09;;;;;;;20.10;4.93;;;10.20;99.90;;;;;;4996715;28;94173;-34
2023/01/11 06:58:36;;;;;;;13.38;5.53;;;10.10;99.90;;;;;;4997938;28;94506;-35
2023/01/11 07:01:02;;;;;;;15.20;5.95;;;10.10;99.90;;;;;;4997811;28;94052;-34
2023/01/11 07:03:27;;;;;;;15.70;5.32;;;10.10;99.90;;;;;;4997991;28;92309;-34
2023/01/11 07:05:55;;;;;;;20.45;5.65;;;10.10;99.90;;;;;;4996552;28;94621;-33
2023/01/11 07:08:22;;;;;;;19.57;6.43;;;10.10;99.90;;;;;;5004681;28;94167;-32
2023/01/11 07:10:47;;;;;;;19.05;6.32;;;10.00;99.90;;;;;;4999552;27;93161;-33
2023/01/11 07:13:17;;;;;;;15.32;6.03;;;10.00;99.90;;;;;;4999972;28;94639;-33
2023/01/11 07:15:48;;;;;;;23.42;6.28;;;10.10;99.90;;;;;;4996330;28;94698;-36
2023/01/11 07:18:14;;;;;;;17.58;4.93;;;10.00;99.90;;;;;;4996861;28;94482;-34
2023/01/11 07:20:40;;;;;;;16.98;6.47;;;10.00;99.90;;;;;;4997344;28;92101;-33
2023/01/11 07:23:09;;;;;;;16.05;5.60;;;10.00;99.90;;;;;;5009721;27;92834;-33
2023/01/11 07:25:35;;;;;;;13.05;5.82;;;10.00;99.90;;;;;;4997447;28;95194;-33
2023/01/11 07:28:06;;;;;;;14.05;5.45;;;9.90;99.90;;;;;;5008843;27;95122;-32
2023/01/11 07:30:34;;;;;;;19.33;5.53;;;9.90;99.90;;;;;;4997755;27;94219;-34
2023/01/11 07:33:00;;;;;;;19.10;5.03;;;9.90;99.90;;;;;;4997076;28;92093;-32
2023/01/11 07:35:26;;;;;;;17.45;5.90;;;9.80;99.90;;;;;;4995900;28;97025;-34
2023/01/11 07:37:52;;;;;;;17.48;5.25;;;9.80;99.90;;;;;;5002762;28;95546;-33
2023/01/11 07:40:18;;;;;;;26.08;6.45;;;9.90;99.90;;;;;;4998001;27;96901;-32
2023/01/11 07:45:37;;;;;;;28.42;5.75;;;9.80;99.90;;;;;;4999023;28;95046;-37
2023/01/11 07:48:04;;;;;;;15.77;5.25;;;9.80;99.90;;;;;;5007096;28;94530;-33
2023/01/11 07:50:30;;;;;;;13.40;5.45;;;9.80;99.90;;;;;;4995776;28;94234;-33
2023/01/11 07:52:55;;;;;;;19.58;5.25;;;9.70;99.90;;;;;;5009314;27;91694;-32
2023/01/11 07:55:21;;;;;;;31.00;5.68;;;9.70;99.90;;;;;;5002997;27;94440;-32
2023/01/11 07:57:47;;;;;;;26.40;7.40;;;9.70;99.90;;;;;;5000012;28;94512;-34
2023/01/11 08:00:13;;;;;;;19.02;7.25;;;9.70;99.90;;;;;;4996323;28;95157;-33
2023/01/11 08:02:39;;;;;;;19.17;6.35;;;9.80;99.90;;;;;;4995506;28;94596;-35
2023/01/11 08:05:05;;;;;;;17.33;5.78;;;9.70;99.90;;;;;;4998839;28;94655;-31
2023/01/11 08:07:30;;;;;;;15.30;6.00;;;9.80;99.90;;;;;;4995344;28;95291;-34
2023/01/11 08:09:56;;;;;;;21.30;5.57;;;9.80;99.90;;;;;;4996339;28;94437;-34
2023/01/11 08:15:09;;;;;;;24.65;5.30;;;9.90;99.90;;;;;;4996898;28;94624;-34
2023/01/11 08:17:35;;;;;;;23.30;7.03;;;9.90;99.90;;;;;;4996897;28;94483;-32
2023/01/11 08:20:00;;;;;;;18.90;7.38;;;9.80;99.90;;;;;;4996459;28;94545;-32
2023/01/11 08:22:26;;;;;;;17.08;5.00;;;9.80;99.90;;;;;;4996359;28;94696;-35
2023/01/11 08:24:52;;;;;;;20.10;5.65;;;9.80;99.90;;;;;;4998620;28;95672;-32
2023/01/11 08:27:18;;;;;;;15.65;5.35;;;9.90;99.90;;;;;;4999552;28;95299;-32
2023/01/11 08:29:43;;;;;;;19.00;5.70;;;9.80;99.90;;;;;;5000358;28;95017;-34
2023/01/11 08:32:10;;;;;;;15.90;4.93;;;9.80;99.90;;;;;;5007169;28;93433;-32
2023/01/11 08:34:36;;;;;;;11.82;5.40;;;9.80;99.90;;;;;;5000948;28;94952;-33
2023/01/11 08:37:02;;;;;;;12.35;5.28;;;9.80;99.90;;;;;;4998637;28;94476;-34
2023/01/11 08:39:30;;;;;;;20.52;5.68;;;9.80;99.90;;;;;;4997338;28;95024;-35
2023/01/11 08:41:57;;;;;;;19.45;6.05;;;9.80;99.90;;;;;;4997021;28;92510;-33
2023/01/11 08:44:23;;;;;;;15.43;4.93;;;9.70;99.90;;;;;;4998748;28;94830;-33
2023/01/11 08:46:48;;;;;;;16.70;4.32;;;9.70;99.90;;;;;;5001656;28;95196;-32
2023/01/11 08:49:14;;;;;;;15.55;4.97;;;9.60;99.90;;;;;;4998981;28;93240;-32
2023/01/11 08:51:40;;;;;;;17.45;4.90;;;9.60;99.90;;;;;;4998674;28;92121;-32
2023/01/11 08:54:09;;;;;;;20.15;5.00;;;9.50;99.90;;;;;;4997515;28;95282;-32
2023/01/11 08:56:36;;;;;;;19.65;5.22;;;9.40;99.90;;;;;;5010668;28;94132;-36
2023/01/11 08:59:03;;;;;;;14.07;4.28;;;9.40;99.90;;;;;;4998697;28;92621;-32
2023/01/11 09:01:29;;;;;;;15.32;4.72;;;9.30;99.90;;;;;;4998029;28;93401;-32
2023/01/11 09:03:55;;;;;;;34.70;4.53;;;9.30;99.90;;;;;;4998849;28;94648;-33
2023/01/11 09:06:21;;;;;;;7.43;3.83;;;9.20;99.90;;;;;;5006376;28;96128;-33
2023/01/11 09:08:47;;;;;;;9.35;3.88;;;9.20;99.90;;;;;;4999340;28;93661;-34
2023/01/11 09:13:57;;;;;;;13.38;3.58;;;9.20;99.90;;;;;;5001165;27;95612;-32
2023/01/11 09:16:23;;;;;;;7.72;3.95;;;9.10;99.90;;;;;;4997980;28;95159;-34
2023/01/11 09:18:48;;;;;;;14.07;3.80;;;9.10;99.90;;;;;;4998672;28;94833;-32
2023/01/11 09:21:14;;;;;;;9.73;4.03;;;9.00;99.90;;;;;;4997779;28;93702;-32
2023/01/11 09:23:40;;;;;;;12.40;3.92;;;9.00;99.90;;;;;;4997780;28;94547;-34
2023/01/11 09:26:06;;;;;;;6.63;3.25;;;9.00;99.90;;;;;;4969720;28;94725;-33
2023/01/11 09:28:31;;;;;;;13.00;3.35;;;9.00;99.90;;;;;;4999160;28;93953;-33
2023/01/11 09:30:57;;;;;;;17.63;3.95;;;9.00;99.90;;;;;;5000097;27;92212;-34
2023/01/11 09:33:23;;;;;;;15.20;4.10;;;9.00;99.90;;;;;;5001081;28;94961;-35
2023/01/11 09:35:50;;;;;;;13.25;3.85;;;9.00;99.90;;;;;;4995423;28;93977;-33
2023/01/11 09:38:16;;;;;;;14.95;4.13;;;8.90;99.90;;;;;;4999393;28;95604;-32
2023/01/11 09:41:25;;;;;;;7.95;3.38;;;8.90;99.90;;;;;;5051645;22;93842;-33
2023/01/11 09:44:15;;;;;;;13.98;4.13;;;8.90;99.90;;;;;;4968768;28;94320;-34
2023/01/11 09:46:46;;;;;;;11.60;3.75;;;8.90;99.90;;;;;;5017866;27;93969;-33
2023/01/11 09:49:27;;;;;;;8.73;3.38;;;8.90;99.90;;;;;;5018277;28;94585;-33
2023/01/11 09:52:13;;;;;;;11.10;4.80;;;8.90;99.90;;;;;;5017816;28;93468;-32
2023/01/11 09:54:39;;;;;;;18.45;4.45;;;9.00;99.90;;;;;;5017257;27;94941;-34
2023/01/11 09:57:05;;;;;;;13.45;4.40;;;9.00;99.90;;;;;;5017552;28;93504;-32
2023/01/11 09:59:49;;;;;;;18.83;5.28;;;9.00;99.90;;;;;;5015209;27;93889;-33
2023/01/11 10:02:44;;;;;;;17.30;5.78;;;9.00;99.90;;;;;;5009174;28;93969;-35
2023/01/11 10:05:28;;;;;;;19.10;4.97;;;9.00;99.90;;;;;;5015197;28;96119;-32
2023/01/11 10:08:19;;;;;;;16.38;5.28;;;9.00;99.90;;;;;;5015115;27;95809;-33
2023/01/11 10:11:19;;;;;;;10.25;4.50;;;9.00;99.90;;;;;;5015122;28;94512;-34
2023/01/11 10:14:25;;;;;;;11.05;5.25;;;9.00;99.90;;;;;;5008149;28;92097;-33
2023/01/11 10:17:12;;;;;;;13.27;3.75;;;9.00;99.90;;;;;;4915077;28;93804;-36
2023/01/11 10:19:56;;;;;;;18.02;4.85;;;9.00;99.90;;;;;;4905257;28;94746;-34
2023/01/11 10:22:38;;;;;;;14.48;5.03;;;9.00;99.90;;;;;;4990987;28;93484;-32
2023/01/11 10:25:20;;;;;;;19.80;5.78;;;9.10;99.90;;;;;;5018062;28;92906;-36
2023/01/11 10:28:00;;;;;;;16.92;4.88;;;9.20;99.90;;;;;;5017168;28;94541;-35
2023/01/11 10:31:06;;;;;;;16.35;5.32;;;9.20;99.90;;;;;;5015713;28;95015;-35
2023/01/11 10:43:02;;;;;;;18.27;5.20;;;9.50;99.90;;;;;;4910939;28;94615;-35
2023/01/11 10:45:56;;;;;;;14.48;4.60;;;9.50;99.90;;;;;;4987123;28;92537;-33
2023/01/11 10:48:38;;;;;;;17.15;5.15;;;9.50;99.90;;;;;;4987177;28;93135;-32
2023/01/11 10:51:28;;;;;;;23.58;5.53;;;9.60;99.90;;;;;;4990277;28;94704;-34
2023/01/11 10:54:16;;;;;;;15.05;4.97;;;9.60;99.90;;;;;;4988201;28;94671;-35
2023/01/11 10:57:16;;;;;;;13.48;5.63;;;9.60;99.90;;;;;;4994738;28;93150;-34
2023/01/11 11:00:00;;;;;;;16.55;6.10;;;9.60;99.90;;;;;;4993034;28;94055;-33
2023/01/11 11:02:46;;;;;;;13.35;5.95;;;9.60;99.90;;;;;;4990671;28;95516;-32
2023/01/11 11:05:24;;;;;;;16.45;5.53;;;9.70;99.90;;;;;;4992462;28;94953;-34
2023/01/11 11:08:17;;;;;;;11.80;4.47;;;9.80;99.90;;;;;;4990965;28;94582;-33
2023/01/11 11:10:51;;;;;;;17.70;4.75;;;9.90;99.90;;;;;;4994875;28;93679;-33
2023/01/11 11:13:48;;;;;;;19.45;5.28;;;9.90;99.90;;;;;;4994073;28;94179;-32
2023/01/11 11:16:26;;;;;;;22.63;5.82;;;10.00;99.90;;;;;;4985927;28;95293;-35
2023/01/11 11:18:57;;;;;;;16.98;6.05;;;10.00;99.90;;;;;;4994834;28;93274;-33
2023/01/11 11:21:29;;;;;;;19.27;5.63;;;10.10;99.90;;;;;;4994667;28;91401;-35
2023/01/11 11:24:00;;;;;;;10.45;4.68;;;10.00;99.90;;;;;;4993993;28;93974;-32
2023/01/11 11:26:36;;;;;;;12.65;5.18;;;10.10;99.90;;;;;;4993753;28;94653;-35
2023/01/11 11:29:10;;;;;;;20.77;5.78;;;10.10;99.90;;;;;;4994284;28;94828;-32
2023/01/11 11:31:41;;;;;;;18.10;5.38;;;10.10;99.90;;;;;;4994765;28;92786;-35
2023/01/11 11:34:13;;;;;;;18.48;4.70;;;10.20;99.90;;;;;;4994704;28;95076;-33
2023/01/11 11:36:44;;;;;;;8.43;4.50;;;10.20;99.90;;;;;;4993323;28;94173;-34
2023/01/11 11:39:30;;;;;;;11.93;5.05;;;10.20;99.90;;;;;;4994674;28;93117;-33
2023/01/11 11:42:04;;;;;;;15.60;4.47;;;10.20;99.90;;;;;;5005078;28;93063;-33
2023/01/11 11:44:30;;;;;;;13.20;5.75;;;10.20;99.90;;;;;;5014466;28;95846;-32
2023/01/11 11:46:56;;;;;;;12.48;5.13;;;10.20;99.90;;;;;;5013726;28;94282;-33
2023/01/11 11:49:22;;;;;;;8.02;4.63;;;10.20;99.90;;;;;;5014748;28;92117;-33
2023/01/11 11:51:50;;;;;;;7.53;4.47;;;10.20;99.90;;;;;;5014585;28;94199;-34
2023/01/11 11:54:40;;;;;;;13.43;4.35;;;10.00;99.90;;;;;;5012923;28;95800;-34
2023/01/11 11:57:39;;;;;;;11.77;4.75;;;10.00;99.90;;;;;;5014217;28;95178;-32
2023/01/11 12:00:24;;;;;;;17.08;4.57;;;10.20;99.90;;;;;;4990980;28;93126;-32
2023/01/11 12:03:00;;;;;;;23.27;6.85;;;10.10;99.90;;;;;;5011490;28;94007;-33
2023/01/11 12:05:26;;;;;;;20.00;4.82;;;10.10;99.90;;;;;;5012161;28;94391;-33
2023/01/11 12:07:53;;;;;;;25.55;5.65;;;10.00;99.90;;;;;;5013892;28;94631;-34
2023/01/11 12:10:23;;;;;;;14.88;5.38;;;10.00;99.90;;;;;;5011578;28;93183;-33
2023/01/11 12:12:56;;;;;;;13.60;5.45;;;10.00;99.90;;;;;;5010831;28;93668;-33
2023/01/11 12:15:30;;;;;;;14.23;5.50;;;10.10;99.90;;;;;;5010310;28;94663;-33
2023/01/11 12:18:21;;;;;;;13.15;5.55;;;10.30;99.90;;;;;;5010606;28;95878;-33
2023/01/11 12:20:46;;;;;;;10.27;4.25;;;10.40;99.90;;;;;;5013392;28;94378;-34
2023/01/11 12:23:20;;;;;;;15.60;5.65;;;10.60;99.90;;;;;;5013863;28;92191;-33
2023/01/11 12:26:15;;;;;;;16.25;4.25;;;10.60;99.90;;;;;;5013570;28;94978;-33
2023/01/11 12:29:02;;;;;;;17.35;4.93;;;10.50;99.90;;;;;;4998874;28;95157;-33
2023/01/11 12:31:36;;;;;;;12.85;5.70;;;10.40;99.90;;;;;;5014081;28;93513;-35
2023/01/11 12:34:36;;;;;;;13.35;4.18;;;10.40;99.90;;;;;;5013992;28;94119;-33
2023/01/11 12:37:38;;;;;;;13.02;5.35;;;10.30;99.90;;;;;;5013494;28;93965;-35
2023/01/11 12:40:18;;;;;;;14.02;3.88;;;10.30;99.90;;;;;;5013401;28;94236;-33
2023/01/11 12:42:59;;;;;;;17.45;4.93;;;10.30;99.90;;;;;;5013897;28;92148;-32
2023/01/11 12:45:48;;;;;;;17.33;6.57;;;10.30;99.90;;;;;;5013680;28;93534;-34
2023/01/11 12:48:41;;;;;;;15.73;5.20;;;10.30;99.90;;;;;;5012911;28;95907;-33
2023/01/11 12:51:31;;;;;;;14.85;5.05;;;10.30;99.90;;;;;;5012994;28;96949;-36
2023/01/11 12:54:41;;;;;;;12.57;4.07;;;10.40;99.90;;;;;;5013594;28;93582;-33
2023/01/11 12:57:19;;;;;;;9.77;3.70;;;10.40;99.90;;;;;;4991153;28;94303;-34
2023/01/11 13:00:06;;;;;;;13.50;4.38;;;10.40;99.90;;;;;;5011590;28;94165;-33
2023/01/11 13:02:56;;;;;;;15.30;4.68;;;10.30;99.90;;;;;;5010803;28;95112;-33
2023/01/11 13:05:53;;;;;;;13.23;4.25;;;10.30;99.90;;;;;;5010091;28;94952;-35
2023/01/11 13:08:35;;;;;;;12.07;5.35;;;10.30;99.90;;;;;;5014226;28;93253;-35
2023/01/11 13:11:34;;;;;;;25.45;5.35;;;10.20;99.90;;;;;;5014727;28;94606;-35
2023/01/11 13:14:15;;;;;;;11.40;4.00;;;10.10;99.90;;;;;;4997198;28;94020;-34
2023/01/11 13:17:01;;;;;;;10.88;5.10;;;10.00;99.90;;;;;;5015063;28;93463;-32
2023/01/11 13:19:55;;;;;;;20.58;4.28;;;10.00;99.90;;;;;;5017031;28;94086;-36
2023/01/11 13:22:27;;;;;;;17.30;5.25;;;9.90;99.90;;;;;;5015070;28;94374;-35
2023/01/11 13:24:52;;;;;;;22.38;4.85;;;10.00;99.90;;;;;;5016357;28;94405;-33
2023/01/11 13:27:21;;;;;;;17.42;4.25;;;10.00;99.90;;;;;;5015959;28;92857;-33
2023/01/11 13:29:50;;;;;;;9.63;4.72;;;9.90;99.90;;;;;;5015961;28;92149;-34
2023/01/11 13:32:24;;;;;;;21.50;5.10;;;9.80;99.90;;;;;;5006525;28;94287;-32
2023/01/11 13:35:16;;;;;;;17.75;5.03;;;9.80;99.90;;;;;;5016522;28;94378;-33
2023/01/11 13:38:04;;;;;;;17.63;4.93;;;9.80;99.90;;;;;;5015957;28;92172;-36
2023/01/11 13:40:46;;;;;;;16.02;4.60;;;9.70;99.90;;;;;;5016645;28;93295;-33
2023/01/11 13:43:17;;;;;;;20.17;4.90;;;9.70;99.90;;;;;;5016136;28;95515;-34
2023/01/11 13:45:57;;;;;;;23.20;5.80;;;9.70;99.90;;;;;;5015472;28;96808;-33
2023/01/11 13:48:36;;;;;;;11.18;3.97;;;9.70;99.90;;;;;;5017477;28;92240;-34
2023/01/11 13:51:11;;;;;;;14.43;4.55;;;9.70;99.90;;;;;;5016686;27;93805;-33